sensor_id;sensor_type;location;lat;lon;timestamp;pressure;altitude;pressure_sealevel;temperature;humidity
56912;BME280;42800;53.928;27.662;2023-09-30T00:00:38;99882.31;;;13.33;100.00
56912;BME280;42800;53.928;27.662;2023-09-30T00:03:04;99876.38;;;13.31;100.00
56912;BME280;42800;53.928;27.662;2023-09-30T00:05:30;99865.69;;;13.29;100.00
56912;BME280;42800;53.928;27.662;2023-09-30T00:07:56;99865.13;;;13.20;100.00
56912;BME280;42800;53.928;27.662;2023-09-30T00:10:22;99864.06;;;13.25;100.00
56912;BME280;42800;53.928;27.662;2023-09-30T00:12:48;99864.56;;;13.30;100.00
56912;BME280;42800;53.928;27.662;2023-09-30T00:15:14;99866.28;;;13.19;100.00
56912;BME280;42800;53.928;27.662;2023-09-30T00:17:40;99857.66;;;13.21;100.00
56912;BME280;42800;53.928;27.662;2023-09-30T00:20:07;99843.44;;;13.18;100.00
56912;BME280;42800;53.928;27.662;2023-09-30T00:22:33;99841.34;;;13.31;100.00
56912;BME280;42800;53.928;27.662;2023-09-30T00:25:00;99852.31;;;13.28;100.00
56912;BME280;42800;53.928;27.662;2023-09-30T00:27:26;99847.59;;;13.28;100.00
56912;BME280;42800;53.928;27.662;2023-09-30T00:29:52;99854.63;;;13.26;100.00
56912;BME280;42800;53.928;27.662;2023-09-30T00:32:18;99850.13;;;13.17;100.00
56912;BME280;42800;53.928;27.662;2023-09-30T00:34:44;99846.22;;;13.18;100.00
56912;BME280;42800;53.928;27.662;2023-09-30T00:37:10;99846.47;;;13.10;100.00
56912;BME280;42800;53.928;27.662;2023-09-30T00:39:36;99841.88;;;13.17;100.00
56912;BME280;42800;53.928;27.662;2023-09-30T00:42:03;99839.84;;;13.14;100.00
56912;BME280;42800;53.928;27.662;2023-09-30T00:44:30;99838.19;;;13.10;100.00
56912;BME280;42800;53.928;27.662;2023-09-30T00:46:56;99844.31;;;13.00;100.00
56912;BME280;42800;53.928;27.662;2023-09-30T00:49:23;99838.81;;;13.00;100.00
56912;BME280;42800;53.928;27.662;2023-09-30T00:51:50;99834.75;;;12.93;100.00
56912;BME280;42800;53.928;27.662;2023-09-30T00:54:17;99830.38;;;12.92;100.00
56912;BME280;42800;53.928;27.662;2023-09-30T00:56:45;99818.59;;;12.92;100.00
56912;BME280;42800;53.928;27.662;2023-09-30T00:59:12;99824.53;;;12.94;100.00
56912;BME280;42800;53.928;27.662;2023-09-30T01:01:38;99826.44;;;12.90;100.00
56912;BME280;42800;53.928;27.662;2023-09-30T01:04:05;99821.66;;;12.87;100.00
56912;BME280;42800;53.928;27.662;2023-09-30T01:06:31;99825.06;;;12.80;100.00
56912;BME280;42800;53.928;27.662;2023-09-30T01:08:57;99818.31;;;12.78;100.00
56912;BME280;42800;53.928;27.662;2023-09-30T01:11:24;99817.59;;;12.81;100.00
56912;BME280;42800;53.928;27.662;2023-09-30T01:13:50;99811.16;;;12.73;100.00
56912;BME280;42800;53.928;27.662;2023-09-30T01:16:16;99814.34;;;12.75;100.00
56912;BME280;42800;53.928;27.662;2023-09-30T01:18:42;99817.47;;;12.74;100.00
56912;BME280;42800;53.928;27.662;2023-09-30T01:21:09;99808.75;;;12.71;100.00
56912;BME280;42800;53.928;27.662;2023-09-30T01:23:35;99802.84;;;12.69;100.00
56912;BME280;42800;53.928;27.662;2023-09-30T01:26:02;99805.44;;;12.62;100.00
56912;BME280;42800;53.928;27.662;2023-09-30T01:28:29;99795.91;;;12.56;100.00
56912;BME280;42800;53.928;27.662;2023-09-30T01:30:55;99787.22;;;12.54;100.00
56912;BME280;42800;53.928;27.662;2023-09-30T01:33:21;99773.97;;;12.60;100.00
56912;BME280;42800;53.928;27.662;2023-09-30T01:35:48;99792.06;;;12.61;100.00
56912;BME280;42800;53.928;27.662;2023-09-30T01:38:14;99788.94;;;12.62;100.00
56912;BME280;42800;53.928;27.662;2023-09-30T01:40:41;99785.56;;;12.50;100.00
56912;BME280;42800;53.928;27.662;2023-09-30T01:43:08;99786.91;;;12.59;100.00
56912;BME280;42800;53.928;27.662;2023-09-30T01:45:34;99786.50;;;12.57;100.00
56912;BME280;42800;53.928;27.662;2023-09-30T01:48:01;99787.72;;;12.60;100.00
56912;BME280;42800;53.928;27.662;2023-09-30T01:50:28;99790.75;;;12.55;100.00
56912;BME280;42800;53.928;27.662;2023-09-30T01:52:54;99795.81;;;12.53;100.00
56912;BME280;42800;53.928;27.662;2023-09-30T01:55:20;99791.91;;;12.54;100.00
56912;BME280;42800;53.928;27.662;2023-09-30T01:57:46;99781.13;;;12.45;100.00
56912;BME280;42800;53.928;27.662;2023-09-30T02:00:12;99781.25;;;12.52;100.00
56912;BME280;42800;53.928;27.662;2023-09-30T02:02:38;99771.56;;;12.39;100.00
56912;BME280;42800;53.928;27.662;2023-09-30T02:05:05;99760.00;;;12.49;100.00
56912;BME280;42800;53.928;27.662;2023-09-30T02:07:33;99768.25;;;12.49;100.00
56912;BME280;42800;53.928;27.662;2023-09-30T02:09:59;99765.16;;;12.51;100.00
56912;BME280;42800;53.928;27.662;2023-09-30T02:12:26;99768.97;;;12.46;100.00
56912;BME280;42800;53.928;27.662;2023-09-30T02:14:53;99763.56;;;12.50;100.00
56912;BME280;42800;53.928;27.662;2023-09-30T02:17:19;99760.00;;;12.49;100.00
56912;BME280;42800;53.928;27.662;2023-09-30T02:19:44;99767.91;;;12.51;100.00
56912;BME280;42800;53.928;27.662;2023-09-30T02:22:11;99759.25;;;12.52;100.00
56912;BME280;42800;53.928;27.662;2023-09-30T02:24:37;99773.59;;;12.42;100.00
56912;BME280;42800;53.928;27.662;2023-09-30T02:27:05;99763.84;;;12.44;100.00
56912;BME280;42800;53.928;27.662;2023-09-30T02:29:31;99767.97;;;12.35;100.00
56912;BME280;42800;53.928;27.662;2023-09-30T02:31:58;99766.53;;;12.41;100.00
56912;BME280;42800;53.928;27.662;2023-09-30T02:34:24;99766.44;;;12.37;100.00
56912;BME280;42800;53.928;27.662;2023-09-30T02:36:50;99760.56;;;12.39;100.00
56912;BME280;42800;53.928;27.662;2023-09-30T02:39:15;99758.56;;;12.36;100.00
56912;BME280;42800;53.928;27.662;2023-09-30T02:41:41;99763.97;;;12.32;100.00
56912;BME280;42800;53.928;27.662;2023-09-30T02:44:07;99759.56;;;12.28;100.00
56912;BME280;42800;53.928;27.662;2023-09-30T02:46:33;99753.22;;;12.23;100.00
56912;BME280;42800;53.928;27.662;2023-09-30T02:49:01;99751.59;;;12.22;100.00
56912;BME280;42800;53.928;27.662;2023-09-30T02:51:27;99752.63;;;12.14;100.00
56912;BME280;42800;53.928;27.662;2023-09-30T02:53:53;99746.69;;;12.12;100.00
56912;BME280;42800;53.928;27.662;2023-09-30T02:56:20;99735.63;;;12.09;100.00
56912;BME280;42800;53.928;27.662;2023-09-30T02:58:45;99728.88;;;12.06;100.00
56912;BME280;42800;53.928;27.662;2023-09-30T03:01:14;99714.06;;;12.11;100.00
56912;BME280;42800;53.928;27.662;2023-09-30T03:03:42;99720.63;;;12.06;100.00
56912;BME280;42800;53.928;27.662;2023-09-30T03:06:10;99712.63;;;11.97;100.00
56912;BME280;42800;53.928;27.662;2023-09-30T03:08:36;99709.72;;;11.90;100.00
56912;BME280;42800;53.928;27.662;2023-09-30T03:11:02;99699.09;;;11.89;100.00
56912;BME280;42800;53.928;27.662;2023-09-30T03:13:29;99698.81;;;11.94;100.00
56912;BME280;42800;53.928;27.662;2023-09-30T03:15:55;99700.41;;;11.95;100.00
56912;BME280;42800;53.928;27.662;2023-09-30T03:18:22;99694.84;;;11.91;100.00
56912;BME280;42800;53.928;27.662;2023-09-30T03:20:51;99696.34;;;11.89;100.00
56912;BME280;42800;53.928;27.662;2023-09-30T03:23:22;99687.22;;;11.85;100.00
56912;BME280;42800;53.928;27.662;2023-09-30T03:25:48;99695.00;;;11.83;100.00
56912;BME280;42800;53.928;27.662;2023-09-30T03:28:14;99700.06;;;11.81;100.00
56912;BME280;42800;53.928;27.662;2023-09-30T03:30:40;99692.09;;;11.75;100.00
56912;BME280;42800;53.928;27.662;2023-09-30T03:33:06;99681.56;;;11.77;100.00
56912;BME280;42800;53.928;27.662;2023-09-30T03:35:32;99688.16;;;11.73;100.00
56912;BME280;42800;53.928;27.662;2023-09-30T03:37:58;99688.03;;;11.69;100.00
56912;BME280;42800;53.928;27.662;2023-09-30T03:40:24;99679.56;;;11.59;100.00
56912;BME280;42800;53.928;27.662;2023-09-30T03:42:58;99665.66;;;11.67;100.00
56912;BME280;42800;53.928;27.662;2023-09-30T03:45:24;99668.31;;;11.64;100.00
56912;BME280;42800;53.928;27.662;2023-09-30T03:47:50;99665.94;;;11.62;100.00
56912;BME280;42800;53.928;27.662;2023-09-30T03:50:17;99661.97;;;11.60;100.00
56912;BME280;42800;53.928;27.662;2023-09-30T03:52:44;99661.88;;;11.56;100.00
56912;BME280;42800;53.928;27.662;2023-09-30T03:55:10;99657.13;;;11.53;100.00
56912;BME280;42800;53.928;27.662;2023-09-30T03:57:38;99657.53;;;11.55;100.00
56912;BME280;42800;53.928;27.662;2023-09-30T04:00:05;99656.47;;;11.60;100.00
56912;BME280;42800;53.928;27.662;2023-09-30T04:02:31;99657.53;;;11.55;100.00
56912;BME280;42800;53.928;27.662;2023-09-30T04:04:57;99667.47;;;11.60;100.00
56912;BME280;42800;53.928;27.662;2023-09-30T04:07:24;99657.28;;;11.60;100.00
56912;BME280;42800;53.928;27.662;2023-09-30T04:09:53;99659.56;;;11.58;100.00
56912;BME280;42800;53.928;27.662;2023-09-30T04:12:19;99665.06;;;11.58;100.00
56912;BME280;42800;53.928;27.662;2023-09-30T04:14:46;99663.47;;;11.57;100.00
56912;BME280;42800;53.928;27.662;2023-09-30T04:17:12;99660.81;;;11.61;100.00
56912;BME280;42800;53.928;27.662;2023-09-30T04:19:38;99662.84;;;11.64;100.00
56912;BME280;42800;53.928;27.662;2023-09-30T04:22:04;99661.22;;;11.63;100.00
56912;BME280;42800;53.928;27.662;2023-09-30T04:24:29;99671.50;;;11.66;100.00
56912;BME280;42800;53.928;27.662;2023-09-30T04:26:55;99670.06;;;11.72;100.00
56912;BME280;42800;53.928;27.662;2023-09-30T04:29:27;99681.50;;;11.74;100.00
56912;BME280;42800;53.928;27.662;2023-09-30T04:31:55;99688.16;;;11.73;100.00
56912;BME280;42800;53.928;27.662;2023-09-30T04:34:21;99689.81;;;11.77;100.00
56912;BME280;42800;53.928;27.662;2023-09-30T04:36:47;99686.34;;;11.81;100.00
56912;BME280;42800;53.928;27.662;2023-09-30T04:39:13;99695.47;;;11.85;100.00
56912;BME280;42800;53.928;27.662;2023-09-30T04:41:40;99696.72;;;11.87;100.00
56912;BME280;42800;53.928;27.662;2023-09-30T04:44:06;99694.47;;;11.93;100.00
56912;BME280;42800;53.928;27.662;2023-09-30T04:46:34;99698.09;;;11.97;100.00
56912;BME280;42800;53.928;27.662;2023-09-30T04:49:01;99706.75;;;11.99;100.00
56912;BME280;42800;53.928;27.662;2023-09-30T04:51:28;99711.91;;;12.00;100.00
56912;BME280;42800;53.928;27.662;2023-09-30T04:53:56;99707.41;;;12.12;100.00
56912;BME280;42800;53.928;27.662;2023-09-30T04:56:22;99715.38;;;12.36;100.00
56912;BME280;42800;53.928;27.662;2023-09-30T04:58:48;99720.44;;;12.77;100.00
56912;BME280;42800;53.928;27.662;2023-09-30T05:01:14;99720.13;;;13.05;100.00
56912;BME280;42800;53.928;27.662;2023-09-30T05:03:40;99685.78;;;13.45;100.00
56912;BME280;42800;53.928;27.662;2023-09-30T05:06:07;99604.41;;;13.51;100.00
56912;BME280;42800;53.928;27.662;2023-09-30T05:08:33;99491.06;;;13.86;100.00
56912;BME280;42800;53.928;27.662;2023-09-30T05:10:59;99305.53;;;14.37;100.00
56912;BME280;42800;53.928;27.662;2023-09-30T05:13:26;99106.22;;;14.76;100.00
56912;BME280;42800;53.928;27.662;2023-09-30T05:15:52;98840.78;;;15.10;100.00
56912;BME280;42800;53.928;27.662;2023-09-30T05:18:18;98635.16;;;15.66;100.00
56912;BME280;42800;53.928;27.662;2023-09-30T05:20:44;98465.41;;;15.94;100.00
56912;BME280;42800;53.928;27.662;2023-09-30T05:23:11;98385.19;;;16.21;100.00
56912;BME280;42800;53.928;27.662;2023-09-30T05:25:38;98322.69;;;16.47;100.00
56912;BME280;42800;53.928;27.662;2023-09-30T05:28:05;98304.66;;;16.79;100.00
56912;BME280;42800;53.928;27.662;2023-09-30T05:30:32;98303.16;;;16.94;100.00
56912;BME280;42800;53.928;27.662;2023-09-30T05:32:58;98300.41;;;17.47;100.00
56912;BME280;42800;53.928;27.662;2023-09-30T05:35:24;98341.16;;;17.83;100.00
56912;BME280;42800;53.928;27.662;2023-09-30T05:37:50;98377.44;;;18.05;100.00
56912;BME280;42800;53.928;27.662;2023-09-30T05:40:19;98400.28;;;18.25;100.00
56912;BME280;42800;53.928;27.662;2023-09-30T05:42:49;98395.34;;;18.49;100.00
56912;BME280;42800;53.928;27.662;2023-09-30T05:45:15;98480.16;;;18.67;100.00
56912;BME280;42800;53.928;27.662;2023-09-30T05:47:41;98448.78;;;18.83;100.00
56912;BME280;42800;53.928;27.662;2023-09-30T05:50:08;98506.94;;;19.19;100.00
56912;BME280;42800;53.928;27.662;2023-09-30T05:52:34;98528.91;;;19.30;100.00
56912;BME280;42800;53.928;27.662;2023-09-30T05:55:02;98551.00;;;19.62;100.00
56912;BME280;42800;53.928;27.662;2023-09-30T05:57:28;98612.78;;;19.70;100.00
56912;BME280;42800;53.928;27.662;2023-09-30T05:59:55;98646.28;;;20.08;100.00
56912;BME280;42800;53.928;27.662;2023-09-30T06:02:21;98676.56;;;20.06;100.00
56912;BME280;42800;53.928;27.662;2023-09-30T06:04:46;98723.91;;;20.32;100.00
56912;BME280;42800;53.928;27.662;2023-09-30T06:07:12;98745.75;;;20.75;100.00
56912;BME280;42800;53.928;27.662;2023-09-30T06:09:39;98772.38;;;20.89;100.00
56912;BME280;42800;53.928;27.662;2023-09-30T06:12:05;98795.28;;;20.97;100.00
56912;BME280;42800;53.928;27.662;2023-09-30T06:14:32;98840.25;;;21.37;100.00
56912;BME280;42800;53.928;27.662;2023-09-30T06:16:58;98859.09;;;21.58;100.00
56912;BME280;42800;53.928;27.662;2023-09-30T06:19:24;98823.94;;;21.48;100.00
56912;BME280;42800;53.928;27.662;2023-09-30T06:21:51;98805.09;;;21.52;100.00
56912;BME280;42800;53.928;27.662;2023-09-30T06:24:17;98839.41;;;22.00;100.00
56912;BME280;42800;53.928;27.662;2023-09-30T06:26:45;98860.22;;;21.74;100.00
56912;BME280;42800;53.928;27.662;2023-09-30T06:29:11;98842.34;;;21.20;100.00
56912;BME280;42800;53.928;27.662;2023-09-30T06:31:37;98871.97;;;22.51;100.00
56912;BME280;42800;53.928;27.662;2023-09-30T06:34:04;98863.22;;;22.62;100.00
56912;BME280;42800;53.928;27.662;2023-09-30T06:36:30;98890.81;;;22.94;100.00
56912;BME280;42800;53.928;27.662;2023-09-30T06:38:56;98893.16;;;22.96;100.00
56912;BME280;42800;53.928;27.662;2023-09-30T06:41:21;98899.97;;;23.17;100.00
56912;BME280;42800;53.928;27.662;2023-09-30T06:43:49;98900.63;;;22.99;100.00
56912;BME280;42800;53.928;27.662;2023-09-30T06:46:15;98914.88;;;23.14;100.00
56912;BME280;42800;53.928;27.662;2023-09-30T06:48:42;98899.06;;;23.20;100.00
56912;BME280;42800;53.928;27.662;2023-09-30T06:51:14;98916.53;;;24.05;100.00
56912;BME280;42800;53.928;27.662;2023-09-30T06:53:40;98905.44;;;23.20;100.00
56912;BME280;42800;53.928;27.662;2023-09-30T06:56:06;98923.75;;;23.75;100.00
56912;BME280;42800;53.928;27.662;2023-09-30T06:58:32;98912.56;;;24.33;100.00
56912;BME280;42800;53.928;27.662;2023-09-30T07:00:58;98918.13;;;24.15;100.00
56912;BME280;42800;53.928;27.662;2023-09-30T07:03:24;98925.56;;;23.68;100.00
56912;BME280;42800;53.928;27.662;2023-09-30T07:05:51;98922.41;;;24.75;100.00
56912;BME280;42800;53.928;27.662;2023-09-30T07:08:17;98932.06;;;25.01;100.00
56912;BME280;42800;53.928;27.662;2023-09-30T07:10:44;98931.69;;;24.35;100.00
56912;BME280;42800;53.928;27.662;2023-09-30T07:13:10;98919.69;;;24.16;100.00
56912;BME280;42800;53.928;27.662;2023-09-30T07:15:36;98905.94;;;23.28;100.00
56912;BME280;42800;53.928;27.662;2023-09-30T07:18:02;98917.50;;;24.11;100.00
56912;BME280;42800;53.928;27.662;2023-09-30T07:20:28;98932.22;;;25.07;100.00
56912;BME280;42800;53.928;27.662;2023-09-30T07:22:58;98926.31;;;24.86;100.00
56912;BME280;42800;53.928;27.662;2023-09-30T07:25:24;98937.34;;;24.53;100.00
56912;BME280;42800;53.928;27.662;2023-09-30T07:27:50;98935.00;;;25.25;100.00
56912;BME280;42800;53.928;27.662;2023-09-30T07:30:16;98930.91;;;24.34;100.00
56912;BME280;42800;53.928;27.662;2023-09-30T07:32:42;98931.44;;;24.51;100.00
56912;BME280;42800;53.928;27.662;2023-09-30T07:35:09;98931.47;;;24.70;100.00
56912;BME280;42800;53.928;27.662;2023-09-30T07:37:35;98923.09;;;24.11;100.00
56912;BME280;42800;53.928;27.662;2023-09-30T07:40:02;98916.78;;;25.02;100.00
56912;BME280;42800;53.928;27.662;2023-09-30T07:42:28;98924.44;;;24.93;100.00
56912;BME280;42800;53.928;27.662;2023-09-30T07:44:55;98940.97;;;25.70;100.00
56912;BME280;42800;53.928;27.662;2023-09-30T07:47:21;98913.22;;;24.65;100.00
56912;BME280;42800;53.928;27.662;2023-09-30T07:49:48;98914.75;;;24.29;100.00
56912;BME280;42800;53.928;27.662;2023-09-30T07:52:14;98920.41;;;25.64;100.00
56912;BME280;42800;53.928;27.662;2023-09-30T07:54:40;98926.28;;;25.32;100.00
56912;BME280;42800;53.928;27.662;2023-09-30T07:57:07;98918.66;;;25.24;100.00
56912;BME280;42800;53.928;27.662;2023-09-30T07:59:33;98931.13;;;25.84;100.00
56912;BME280;42800;53.928;27.662;2023-09-30T08:02:00;98910.72;;;24.85;100.00
56912;BME280;42800;53.928;27.662;2023-09-30T08:04:26;98905.78;;;25.50;100.00
56912;BME280;42800;53.928;27.662;2023-09-30T08:06:52;98922.81;;;25.89;100.00
56912;BME280;42800;53.928;27.662;2023-09-30T08:09:19;98906.22;;;25.58;100.00
56912;BME280;42800;53.928;27.662;2023-09-30T08:11:45;98912.72;;;25.73;100.00
56912;BME280;42800;53.928;27.662;2023-09-30T08:14:11;98913.44;;;25.92;100.00
56912;BME280;42800;53.928;27.662;2023-09-30T08:16:37;98902.22;;;25.50;100.00
56912;BME280;42800;53.928;27.662;2023-09-30T08:19:03;98903.13;;;25.56;100.00
56912;BME280;42800;53.928;27.662;2023-09-30T08:21:29;98910.03;;;25.79;100.00
56912;BME280;42800;53.928;27.662;2023-09-30T08:23:55;98889.22;;;25.19;100.00
56912;BME280;42800;53.928;27.662;2023-09-30T08:26:22;98897.06;;;26.39;100.00
56912;BME280;42800;53.928;27.662;2023-09-30T08:28:48;98902.78;;;26.29;100.00
56912;BME280;42800;53.928;27.662;2023-09-30T08:31:14;98906.03;;;26.76;100.00
56912;BME280;42800;53.928;27.662;2023-09-30T08:33:40;98882.94;;;26.09;100.00
56912;BME280;42800;53.928;27.662;2023-09-30T08:36:09;98879.78;;;25.41;100.00
56912;BME280;42800;53.928;27.662;2023-09-30T08:38:35;98897.97;;;26.21;100.00
56912;BME280;42800;53.928;27.662;2023-09-30T08:41:02;98888.44;;;26.42;100.00
56912;BME280;42800;53.928;27.662;2023-09-30T08:43:28;98886.44;;;26.43;100.00
56912;BME280;42800;53.928;27.662;2023-09-30T08:45:56;98897.81;;;26.48;100.00
56912;BME280;42800;53.928;27.662;2023-09-30T08:48:23;98890.38;;;26.36;100.00
56912;BME280;42800;53.928;27.662;2023-09-30T08:50:52;98882.44;;;25.87;100.00
56912;BME280;42800;53.928;27.662;2023-09-30T08:53:19;98883.75;;;26.48;100.00
56912;BME280;42800;53.928;27.662;2023-09-30T08:55:46;98871.69;;;25.76;100.00
56912;BME280;42800;53.928;27.662;2023-09-30T08:58:12;98880.25;;;27.07;100.00
56912;BME280;42800;53.928;27.662;2023-09-30T09:00:39;98898.97;;;26.95;100.00
56912;BME280;42800;53.928;27.662;2023-09-30T09:03:06;98880.53;;;26.17;100.00
56912;BME280;42800;53.928;27.662;2023-09-30T09:05:33;98866.06;;;26.33;100.00
56912;BME280;42800;53.928;27.662;2023-09-30T09:07:59;98874.28;;;26.61;100.00
56912;BME280;42800;53.928;27.662;2023-09-30T09:10:25;98871.19;;;26.35;100.00
56912;BME280;42800;53.928;27.662;2023-09-30T09:12:55;98869.53;;;26.04;100.00
56912;BME280;42800;53.928;27.662;2023-09-30T09:15:24;98871.69;;;26.33;100.00
56912;BME280;42800;53.928;27.662;2023-09-30T09:17:50;98884.03;;;27.49;100.00
56912;BME280;42800;53.928;27.662;2023-09-30T09:20:18;98875.50;;;26.84;100.00
56912;BME280;42800;53.928;27.662;2023-09-30T09:22:47;98879.47;;;27.51;100.00
56912;BME280;42800;53.928;27.662;2023-09-30T09:25:13;98870.91;;;26.71;100.00
56912;BME280;42800;53.928;27.662;2023-09-30T09:27:39;98874.72;;;26.98;100.00
56912;BME280;42800;53.928;27.662;2023-09-30T09:30:15;98865.75;;;25.83;100.00
56912;BME280;42800;53.928;27.662;2023-09-30T09:33:00;98864.84;;;25.34;100.00
56912;BME280;42800;53.928;27.662;2023-09-30T09:35:27;98865.00;;;26.07;100.00
56912;BME280;42800;53.928;27.662;2023-09-30T09:37:57;98865.72;;;25.50;100.00
56912;BME280;42800;53.928;27.662;2023-09-30T09:40:23;98871.28;;;26.49;100.00
56912;BME280;42800;53.928;27.662;2023-09-30T09:42:51;98878.50;;;26.95;100.00
56912;BME280;42800;53.928;27.662;2023-09-30T09:45:21;98878.88;;;26.73;100.00
56912;BME280;42800;53.928;27.662;2023-09-30T09:47:48;98855.44;;;25.47;100.00
56912;BME280;42800;53.928;27.662;2023-09-30T09:50:15;98856.03;;;25.93;100.00
56912;BME280;42800;53.928;27.662;2023-09-30T09:52:41;98863.50;;;26.20;100.00
56912;BME280;42800;53.928;27.662;2023-09-30T09:55:10;98870.94;;;26.86;100.00
56912;BME280;42800;53.928;27.662;2023-09-30T09:57:36;98866.69;;;26.52;100.00
56912;BME280;42800;53.928;27.662;2023-09-30T10:00:04;98869.25;;;26.65;100.00
56912;BME280;42800;53.928;27.662;2023-09-30T10:02:32;98875.97;;;26.43;100.00
56912;BME280;42800;53.928;27.662;2023-09-30T10:04:58;98871.91;;;26.98;99.11
56912;BME280;42800;53.928;27.662;2023-09-30T10:07:29;98864.25;;;26.84;100.00
56912;BME280;42800;53.928;27.662;2023-09-30T10:09:58;98873.28;;;26.25;100.00
56912;BME280;42800;53.928;27.662;2023-09-30T10:12:26;98858.94;;;25.99;100.00
56912;BME280;42800;53.928;27.662;2023-09-30T10:14:53;98867.25;;;26.95;100.00
56912;BME280;42800;53.928;27.662;2023-09-30T10:17:19;98858.41;;;27.02;100.00
56912;BME280;42800;53.928;27.662;2023-09-30T10:20:05;98862.97;;;26.85;100.00
56912;BME280;42800;53.928;27.662;2023-09-30T10:22:32;98864.91;;;27.08;100.00
56912;BME280;42800;53.928;27.662;2023-09-30T10:24:58;98866.69;;;27.20;94.12
56912;BME280;42800;53.928;27.662;2023-09-30T10:27:30;98864.63;;;26.77;100.00
56912;BME280;42800;53.928;27.662;2023-09-30T10:29:57;98861.56;;;27.34;96.77
56912;BME280;42800;53.928;27.662;2023-09-30T10:33:08;98851.38;;;25.48;100.00
56912;BME280;42800;53.928;27.662;2023-09-30T10:35:48;98847.28;;;26.15;100.00
56912;BME280;42800;53.928;27.662;2023-09-30T10:38:36;98850.56;;;26.38;100.00
56912;BME280;42800;53.928;27.662;2023-09-30T10:41:03;98845.53;;;26.42;100.00
56912;BME280;42800;53.928;27.662;2023-09-30T10:43:31;98842.97;;;26.68;100.00
56912;BME280;42800;53.928;27.662;2023-09-30T10:45:57;98825.59;;;25.58;100.00
56912;BME280;42800;53.928;27.662;2023-09-30T10:48:36;98830.59;;;26.12;100.00
56912;BME280;42800;53.928;27.662;2023-09-30T10:51:13;98842.00;;;26.56;100.00
56912;BME280;42800;53.928;27.662;2023-09-30T10:53:42;98841.34;;;26.91;100.00
56912;BME280;42800;53.928;27.662;2023-09-30T10:56:08;98842.53;;;27.29;99.51
56912;BME280;42800;53.928;27.662;2023-09-30T10:58:42;98830.78;;;27.30;100.00
56912;BME280;42800;53.928;27.662;2023-09-30T11:01:08;98831.91;;;26.49;100.00
56912;BME280;42800;53.928;27.662;2023-09-30T11:03:34;98845.16;;;26.49;95.52
56912;BME280;42800;53.928;27.662;2023-09-30T11:06:00;98834.28;;;26.66;98.79
56912;BME280;42800;53.928;27.662;2023-09-30T11:08:28;98826.31;;;25.44;100.00
56912;BME280;42800;53.928;27.662;2023-09-30T11:10:55;98814.25;;;25.53;100.00
56912;BME280;42800;53.928;27.662;2023-09-30T11:13:22;98811.78;;;25.46;100.00
56912;BME280;42800;53.928;27.662;2023-09-30T11:15:59;98815.28;;;25.65;100.00
56912;BME280;42800;53.928;27.662;2023-09-30T11:18:25;98810.38;;;25.74;100.00
56912;BME280;42800;53.928;27.662;2023-09-30T11:21:03;98807.81;;;24.68;100.00
56912;BME280;42800;53.928;27.662;2023-09-30T11:23:29;98799.03;;;24.93;100.00
56912;BME280;42800;53.928;27.662;2023-09-30T11:25:56;98798.47;;;25.22;100.00
56912;BME280;42800;53.928;27.662;2023-09-30T11:28:22;98806.25;;;25.27;100.00
56912;BME280;42800;53.928;27.662;2023-09-30T11:30:56;98798.06;;;25.15;100.00
56912;BME280;42800;53.928;27.662;2023-09-30T11:33:22;98802.78;;;24.81;100.00
56912;BME280;42800;53.928;27.662;2023-09-30T11:35:56;98791.31;;;24.24;100.00
56912;BME280;42800;53.928;27.662;2023-09-30T11:38:23;98794.38;;;24.81;100.00
56912;BME280;42800;53.928;27.662;2023-09-30T11:41:00;98784.94;;;24.41;100.00
56912;BME280;42800;53.928;27.662;2023-09-30T11:43:29;98775.88;;;24.74;100.00
56912;BME280;42800;53.928;27.662;2023-09-30T11:46:06;98775.16;;;24.46;100.00
56912;BME280;42800;53.928;27.662;2023-09-30T11:48:34;98762.53;;;24.14;100.00
56912;BME280;42800;53.928;27.662;2023-09-30T11:51:01;98777.00;;;24.22;100.00
56912;BME280;42800;53.928;27.662;2023-09-30T11:53:29;98778.69;;;24.19;100.00
56912;BME280;42800;53.928;27.662;2023-09-30T11:55:56;98784.16;;;24.13;100.00
56912;BME280;42800;53.928;27.662;2023-09-30T11:58:24;98782.91;;;24.42;100.00
56912;BME280;42800;53.928;27.662;2023-09-30T12:00:53;98768.13;;;24.32;100.00
56912;BME280;42800;53.928;27.662;2023-09-30T12:03:20;98777.31;;;23.87;100.00
56912;BME280;42800;53.928;27.662;2023-09-30T12:05:47;98770.91;;;23.95;100.00
56912;BME280;42800;53.928;27.662;2023-09-30T12:08:13;98769.03;;;23.92;100.00
56912;BME280;42800;53.928;27.662;2023-09-30T12:10:40;98763.91;;;24.37;100.00
56912;BME280;42800;53.928;27.662;2023-09-30T12:13:06;98769.84;;;24.21;100.00
56912;BME280;42800;53.928;27.662;2023-09-30T12:15:32;98761.28;;;24.33;100.00
56912;BME280;42800;53.928;27.662;2023-09-30T12:17:58;98772.53;;;24.42;100.00
56912;BME280;42800;53.928;27.662;2023-09-30T12:20:24;98770.88;;;24.69;100.00
56912;BME280;42800;53.928;27.662;2023-09-30T12:22:50;98775.09;;;24.64;100.00
56912;BME280;42800;53.928;27.662;2023-09-30T12:25:19;98753.34;;;24.59;100.00
56912;BME280;42800;53.928;27.662;2023-09-30T12:27:46;98765.78;;;24.31;100.00
56912;BME280;42800;53.928;27.662;2023-09-30T12:30:13;98762.66;;;24.38;100.00
56912;BME280;42800;53.928;27.662;2023-09-30T12:32:39;98765.25;;;24.78;100.00
56912;BME280;42800;53.928;27.662;2023-09-30T12:35:05;98757.19;;;24.62;100.00
56912;BME280;42800;53.928;27.662;2023-09-30T12:37:32;98763.16;;;24.46;100.00
56912;BME280;42800;53.928;27.662;2023-09-30T12:39:58;98775.38;;;24.76;100.00